Time;durP1;ratioP1;P1;durP2;ratioP2;P2;SDS_P1;SDS_P2;PMS_P1;PMS_P2;Temp;Humidity;BMP_temperature;BMP_pressure;BME280_temperature;BME280_humidity;BME280_pressure;Samples;Min_cycle;Max_cycle;Signal;HPM_P1;HPM_P2
2022/07/09 00:00:11;;;;;;;;;;;;;;;18.31;100.00;100543.44;5075064;28;19931;-82
2022/07/09 00:02:41;;;;;;;;;;;;;;;18.41;100.00;100559.41;5073396;28;20448;-81
2022/07/09 00:05:09;;;;;;;;;;;;;;;18.01;100.00;100557.91;5107077;28;19954;-81
2022/07/09 00:07:39;;;;;;;;;;;;;;;18.25;100.00;100548.03;5074944;28;20421;-82
2022/07/09 00:10:07;;;;;;;;;;;;;;;18.02;100.00;100561.53;5106309;28;20382;-82
2022/07/09 00:12:34;;;;;;;;;;;;;;;18.24;100.00;100548.47;5089390;28;19924;-82
2022/07/09 00:15:02;;;;;;;;;;;;;;;18.04;100.00;100551.38;5106581;28;20328;-82
2022/07/09 00:17:32;;;;;;;;;;;;;;;18.62;100.00;100546.75;5057078;28;20352;-82
2022/07/09 00:20:01;;;;;;;;;;;;;;;18.43;100.00;100550.50;5073462;28;20415;-82
2022/07/09 00:22:28;;;;;;;;;;;;;;;18.48;100.00;100550.75;5074505;28;19931;-82
2022/07/09 00:24:56;;;;;;;;;;;;;;;18.53;100.00;100549.41;5073325;28;20011;-82
2022/07/09 00:27:23;;;;;;;;;;;;;;;18.48;100.00;100538.66;5072561;28;20557;-82
2022/07/09 00:29:50;;;;;;;;;;;;;;;18.56;100.00;100526.69;5073981;28;19925;-82
2022/07/09 00:32:18;;;;;;;;;;;;;;;18.42;100.00;100531.94;5074621;28;19925;-82
2022/07/09 00:34:45;;;;;;;;;;;;;;;18.15;100.00;100529.28;5073078;28;19924;-82
2022/07/09 00:37:12;;;;;;;;;;;;;;;17.61;100.00;100537.38;5074320;28;19925;-82
2022/07/09 00:39:39;;;;;;;;;;;;;;;17.99;100.00;100526.44;5089578;28;19924;-82
2022/07/09 00:42:10;;;;;;;;;;;;;;;17.95;100.00;100528.53;5072599;28;19974;-81
2022/07/09 00:44:37;;;;;;;;;;;;;;;17.71;100.00;100522.22;5073232;28;19971;-81
2022/07/09 00:47:06;;;;;;;;;;;;;;;17.66;100.00;100519.13;5074312;28;19931;-82
2022/07/09 00:49:40;;;;;;;;;;;;;;;17.62;100.00;100530.50;5089882;28;19924;-82
2022/07/09 00:52:09;;;;;;;;;;;;;;;17.87;100.00;100524.31;5074423;28;19959;-82
2022/07/09 00:54:37;;;;;;;;;;;;;;;17.71;100.00;100515.75;5072535;28;19935;-81
2022/07/09 00:57:06;;;;;;;;;;;;;;;17.73;100.00;100518.94;5072917;28;19930;-81
2022/07/09 00:59:34;;;;;;;;;;;;;;;17.86;100.00;100514.19;5106764;28;19948;-81
2022/07/09 01:02:01;;;;;;;;;;;;;;;17.40;100.00;100511.56;5072978;28;19924;-81
2022/07/09 01:04:29;;;;;;;;;;;;;;;17.56;100.00;100520.13;5073881;28;19931;-81
2022/07/09 01:06:57;;;;;;;;;;;;;;;17.63;100.00;100505.88;5073125;28;20328;-82
2022/07/09 01:09:26;;;;;;;;;;;;;;;17.35;100.00;100509.25;5072557;28;19925;-82
2022/07/09 01:11:53;;;;;;;;;;;;;;;17.41;100.00;100516.78;5104668;28;19924;-82
2022/07/09 01:14:20;;;;;;;;;;;;;;;17.52;100.00;100525.06;5072980;28;19932;-81
2022/07/09 01:16:56;;;;;;;;;;;;;;;17.62;100.00;100505.06;5039687;28;19958;-82
2022/07/09 01:19:24;;;;;;;;;;;;;;;17.63;100.00;100515.13;5089333;28;19925;-82
2022/07/09 01:21:52;;;;;;;;;;;;;;;17.63;100.00;100520.00;5075805;28;20364;-82
2022/07/09 01:24:19;;;;;;;;;;;;;;;17.92;100.00;100524.56;5077298;28;20331;-81
2022/07/09 01:26:47;;;;;;;;;;;;;;;17.98;100.00;100532.53;5076107;28;19925;-82
2022/07/09 01:29:14;;;;;;;;;;;;;;;17.63;100.00;100525.66;5109802;28;19925;-81
2022/07/09 01:31:42;;;;;;;;;;;;;;;17.68;100.00;100527.94;5077857;28;19924;-81
2022/07/09 01:34:09;;;;;;;;;;;;;;;17.59;100.00;100522.09;5092921;28;20015;-81
2022/07/09 01:36:36;;;;;;;;;;;;;;;18.25;100.00;100525.41;5076445;28;19939;-81
2022/07/09 01:39:04;;;;;;;;;;;;;;;17.85;100.00;100526.75;5076077;28;19974;-81
2022/07/09 01:41:32;;;;;;;;;;;;;;;17.90;100.00;100527.03;5077397;28;19924;-81
2022/07/09 01:43:59;;;;;;;;;;;;;;;17.85;100.00;100526.75;5076002;28;19924;-81
2022/07/09 01:46:26;;;;;;;;;;;;;;;17.87;100.00;100530.72;5059408;28;20422;-81
2022/07/09 01:48:53;;;;;;;;;;;;;;;17.75;100.00;100539.13;5075860;28;19968;-81
2022/07/09 01:51:22;;;;;;;;;;;;;;;17.69;100.00;100521.84;5076948;28;19924;-82
2022/07/09 01:53:49;;;;;;;;;;;;;;;17.81;100.00;100532.47;5075255;28;20027;-82
2022/07/09 01:56:17;;;;;;;;;;;;;;;17.70;100.00;100525.47;5092926;28;20415;-82
2022/07/09 01:58:44;;;;;;;;;;;;;;;17.73;100.00;100533.09;5092576;28;20362;-82
2022/07/09 02:01:12;;;;;;;;;;;;;;;17.86;100.00;100525.50;5075605;28;20423;-82
2022/07/09 02:03:39;;;;;;;;;;;;;;;18.05;100.00;100519.03;5075652;28;19991;-80
2022/07/09 02:06:06;;;;;;;;;;;;;;;17.78;100.00;100539.00;5076566;28;20275;-81
2022/07/09 02:08:33;;;;;;;;;;;;;;;17.75;100.00;100528.59;5076394;28;19924;-82
2022/07/09 02:11:00;;;;;;;;;;;;;;;17.76;100.00;100529.38;5058991;28;19925;-82
2022/07/09 02:13:27;;;;;;;;;;;;;;;17.61;100.00;100522.44;5077063;28;19925;-82
2022/07/09 02:15:54;;;;;;;;;;;;;;;17.41;100.00;100524.44;5074974;28;19931;-83
2022/07/09 02:18:22;;;;;;;;;;;;;;;17.67;100.00;100529.19;5076638;28;19924;-82
2022/07/09 02:20:49;;;;;;;;;;;;;;;17.51;100.00;100529.09;5075500;28;19925;-82
2022/07/09 02:23:16;;;;;;;;;;;;;;;17.65;100.00;100537.28;5058534;28;19925;-82
2022/07/09 02:25:43;;;;;;;;;;;;;;;17.42;100.00;100526.03;5075526;28;20344;-82
2022/07/09 02:28:11;;;;;;;;;;;;;;;17.64;100.00;100538.53;5076198;28;19931;-82
2022/07/09 02:30:38;;;;;;;;;;;;;;;17.85;100.00;100535.25;5058975;28;20311;-82
2022/07/09 02:33:05;;;;;;;;;;;;;;;17.80;100.00;100521.63;5107831;28;20375;-82
2022/07/09 02:35:32;;;;;;;;;;;;;;;17.51;100.00;100527.09;5075925;28;20011;-82
2022/07/09 02:38:00;;;;;;;;;;;;;;;17.70;100.00;100520.63;5075719;28;20015;-82
2022/07/09 02:40:27;;;;;;;;;;;;;;;17.77;100.00;100520.47;5076489;28;19955;-82
2022/07/09 02:42:54;;;;;;;;;;;;;;;17.84;100.00;100520.31;5074849;28;20026;-82
2022/07/09 02:45:21;;;;;;;;;;;;;;;17.81;100.00;100511.91;5075916;28;20447;-81
2022/07/09 02:47:48;;;;;;;;;;;;;;;17.77;100.00;100520.47;5075014;28;19928;-82
2022/07/09 02:50:15;;;;;;;;;;;;;;;17.69;100.00;100519.03;5075679;28;19925;-82
2022/07/09 02:52:42;;;;;;;;;;;;;;;17.70;100.00;100497.22;5074257;28;19990;-82
2022/07/09 02:55:09;;;;;;;;;;;;;;;17.79;100.00;100505.91;5075729;28;19931;-81
2022/07/09 02:57:37;;;;;;;;;;;;;;;17.86;100.00;100483.91;5058370;28;20036;-82
2022/07/09 03:00:05;;;;;;;;;;;;;;;17.49;100.00;100497.69;5091236;28;20277;-82
2022/07/09 03:02:32;;;;;;;;;;;;;;;17.52;100.00;100472.16;5108306;28;20074;-81
2022/07/09 03:05:00;;;;;;;;;;;;;;;17.36;100.00;100474.09;5075273;28;20011;-81
2022/07/09 03:07:27;;;;;;;;;;;;;;;17.42;100.00;100469.53;5108164;28;19929;-82
2022/07/09 03:09:54;;;;;;;;;;;;;;;17.27;100.00;100456.94;5075759;28;20019;-82
2022/07/09 03:12:22;;;;;;;;;;;;;;;17.22;100.00;100455.41;5073897;28;19925;-82
2022/07/09 03:14:49;;;;;;;;;;;;;;;17.33;100.00;100460.84;5057568;28;20024;-82
2022/07/09 03:17:16;;;;;;;;;;;;;;;17.44;100.00;100470.72;5091135;28;19925;-82
2022/07/09 03:19:43;;;;;;;;;;;;;;;17.30;100.00;100478.66;5091154;28;19925;-82
2022/07/09 03:22:11;;;;;;;;;;;;;;;17.30;100.00;100478.66;5073934;28;19924;-82
2022/07/09 03:24:39;;;;;;;;;;;;;;;17.22;100.00;100471.59;5075038;28;19963;-82
2022/07/09 03:27:06;;;;;;;;;;;;;;;17.12;100.00;100478.22;5107525;28;19924;-83
2022/07/09 03:29:33;;;;;;;;;;;;;;;17.11;100.00;100480.28;5073965;28;19924;-82
2022/07/09 03:32:00;;;;;;;;;;;;;;;17.16;100.00;100485.41;5108043;28;19932;-82
2022/07/09 03:34:28;;;;;;;;;;;;;;;17.23;100.00;100493.75;5057195;28;20015;-82
2022/07/09 03:37:14;;;;;;;;;;;;;;;17.11;100.00;100497.22;5074715;28;19930;-82
2022/07/09 03:39:41;;;;;;;;;;;;;;;17.31;100.00;100503.66;5074255;28;19924;-81
2022/07/09 03:42:08;;;;;;;;;;;;;;;17.25;100.00;100516.69;5073913;28;19947;-81
2022/07/09 03:44:35;;;;;;;;;;;;;;;17.38;100.00;100514.03;5073919;28;20525;-81
2022/07/09 03:47:03;;;;;;;;;;;;;;;17.03;100.00;100514.72;5073699;28;19930;-82
2022/07/09 03:49:30;;;;;;;;;;;;;;;17.00;100.00;100505.09;5056740;28;20396;-82
2022/07/09 03:51:57;;;;;;;;;;;;;;;17.22;100.00;100506.25;5073489;28;19924;-82
2022/07/09 03:54:37;;;;;;;;;;;;;;;17.10;100.00;100521.03;5040341;28;19947;-82
2022/07/09 03:57:08;;;;;;;;;;;;;;;17.24;100.00;100526.41;5073619;28;19975;-81
2022/07/09 03:59:35;;;;;;;;;;;;;;;17.14;100.00;100520.97;5073659;28;19924;-82
2022/07/09 04:02:04;;;;;;;;;;;;;;;17.13;100.00;100513.75;5074732;28;19924;-83
2022/07/09 04:04:33;;;;;;;;;;;;;;;16.85;100.00;100514.25;5074093;28;19928;-82
2022/07/09 04:07:00;;;;;;;;;;;;;;;16.97;100.00;100508.78;5074834;28;20371;-82
2022/07/09 04:09:27;;;;;;;;;;;;;;;17.04;100.00;100513.50;5056612;28;19970;-82
2022/07/09 04:11:55;;;;;;;;;;;;;;;17.16;100.00;100512.88;5089517;28;19932;-82
2022/07/09 04:14:22;;;;;;;;;;;;;;;17.16;100.00;100529.81;5074713;28;20364;-83
2022/07/09 04:16:51;;;;;;;;;;;;;;;17.11;100.00;100524.66;5056148;28;21435;-82
2022/07/09 04:19:18;;;;;;;;;;;;;;;17.10;100.00;100521.03;5073021;28;20252;-82
2022/07/09 04:21:46;;;;;;;;;;;;;;;16.93;100.00;100516.53;5056883;28;20029;-82
2022/07/09 04:24:15;;;;;;;;;;;;;;;16.95;100.00;100530.22;5074100;28;19930;-82
2022/07/09 04:26:43;;;;;;;;;;;;;;;17.11;100.00;100519.81;5106778;28;20078;-82
2022/07/09 04:29:10;;;;;;;;;;;;;;;17.49;100.00;100540.06;5072975;28;19928;-81
2022/07/09 04:31:37;;;;;;;;;;;;;;;16.90;100.00;100539.19;5074584;28;19924;-82
2022/07/09 04:34:04;;;;;;;;;;;;;;;17.14;100.00;100543.56;5073637;28;19970;-81
2022/07/09 04:36:32;;;;;;;;;;;;;;;17.26;100.00;100545.75;5074075;28;19924;-81
2022/07/09 04:38:59;;;;;;;;;;;;;;;17.54;100.00;100548.00;5072954;28;20399;-82
2022/07/09 04:41:26;;;;;;;;;;;;;;;17.37;100.00;100532.22;5073152;28;20355;-82
2022/07/09 04:43:53;;;;;;;;;;;;;;;16.97;100.00;100530.56;5089814;28;19970;-82
2022/07/09 04:46:23;;;;;;;;;;;;;;;17.01;100.00;100551.09;5073333;28;19956;-82
2022/07/09 04:48:50;;;;;;;;;;;;;;;17.01;100.00;100546.22;5073699;28;19928;-81
2022/07/09 04:51:17;;;;;;;;;;;;;;;17.20;100.00;100541.84;5074202;28;19924;-82
2022/07/09 04:53:44;;;;;;;;;;;;;;;17.39;100.00;100544.66;5073836;28;19931;-81
2022/07/09 04:56:12;;;;;;;;;;;;;;;17.37;100.00;100538.66;5075090;28;19924;-81
2022/07/09 04:58:51;;;;;;;;;;;;;;;17.11;100.00;100541.59;5076939;28;20363;-81
2022/07/09 05:01:19;;;;;;;;;;;;;;;17.54;100.00;100533.88;5077230;28;19924;-82
2022/07/09 05:03:46;;;;;;;;;;;;;;;17.53;100.00;100537.94;5060012;28;19964;-81
2022/07/09 05:06:14;;;;;;;;;;;;;;;17.55;100.00;100527.03;5078133;28;19931;-81
2022/07/09 05:08:41;;;;;;;;;;;;;;;17.44;100.00;100540.56;5076257;28;19933;-84
2022/07/09 05:11:10;;;;;;;;;;;;;;;17.55;100.00;100538.31;5077895;28;19977;-84
2022/07/09 05:13:41;;;;;;;;;;;;;;;17.62;100.00;100552.28;5077708;28;20019;-84
2022/07/09 05:16:09;;;;;;;;;;;;;;;17.57;100.00;100547.16;5093236;28;19928;-84
2022/07/09 05:18:36;;;;;;;;;;;;;;;17.70;100.00;100548.09;5076395;28;20290;-84
2022/07/09 05:21:04;;;;;;;;;;;;;;;17.49;100.00;100552.16;5077526;28;20019;-85
2022/07/09 05:23:33;;;;;;;;;;;;;;;17.29;100.00;100542.06;5076012;28;19924;-83
2022/07/09 05:26:00;;;;;;;;;;;;;;;17.78;100.00;100538.25;5077422;28;19978;-85
2022/07/09 05:28:27;;;;;;;;;;;;;;;17.27;100.00;100525.53;5076312;28;19925;-84
2022/07/09 05:30:54;;;;;;;;;;;;;;;17.39;100.00;100529.72;5075847;28;20328;-83
2022/07/09 05:33:35;;;;;;;;;;;;;;;17.57;100.00;100527.38;5061558;28;20027;-84
2022/07/09 05:36:02;;;;;;;;;;;;;;;17.74;100.00;100529.00;5076086;28;20456;-84
2022/07/09 05:38:29;;;;;;;;;;;;;;;17.66;100.00;100531.19;5077466;28;19951;-84
2022/07/09 05:40:57;;;;;;;;;;;;;;;17.31;100.00;100526.25;5076095;28;19955;-84
2022/07/09 05:43:24;;;;;;;;;;;;;;;17.15;100.00;100531.03;5077239;28;19932;-84
2022/07/09 05:45:52;;;;;;;;;;;;;;;17.20;100.00;100541.84;5076124;28;19924;-84
2022/07/09 05:48:20;;;;;;;;;;;;;;;17.35;100.00;100540.31;5076220;28;19931;-84
2022/07/09 05:51:32;;;;;;;;;;;;;;;17.43;100.00;100533.31;4964586;28;19933;-84
2022/07/09 05:53:59;;;;;;;;;;;;;;;17.36;100.00;100534.22;5054723;28;19975;-84
2022/07/09 05:56:27;;;;;;;;;;;;;;;17.66;100.00;100531.19;5093022;28;19975;-84
2022/07/09 05:58:55;;;;;;;;;;;;;;;17.36;100.00;100527.78;5076076;28;20017;-84
2022/07/09 06:01:22;;;;;;;;;;;;;;;17.27;100.00;100541.69;5075618;28;20307;-84
2022/07/09 06:03:52;;;;;;;;;;;;;;;17.47;100.00;100534.84;5075497;28;19931;-84
2022/07/09 06:06:20;;;;;;;;;;;;;;;17.76;100.00;100523.72;5075896;28;19932;-84
2022/07/09 06:08:47;;;;;;;;;;;;;;;17.75;100.00;100533.47;5107465;28;19954;-84
2022/07/09 06:11:15;;;;;;;;;;;;;;;18.00;100.00;100525.19;5076689;28;19924;-84
2022/07/09 06:13:42;;;;;;;;;;;;;;;18.02;100.00;100530.41;5075583;28;19960;-84
2022/07/09 06:16:09;;;;;;;;;;;;;;;17.81;100.00;100524.00;5076027;28;19982;-84
2022/07/09 06:18:37;;;;;;;;;;;;;;;17.92;100.00;100527.41;5041887;28;19932;-84
2022/07/09 06:21:14;;;;;;;;;;;;;;;17.88;100.00;100518.22;5058701;28;19955;-84
2022/07/09 06:23:41;;;;;;;;;;;;;;;17.74;100.00;100517.72;5075080;28;20302;-82
2022/07/09 06:26:08;;;;;;;;;;;;;;;17.81;100.00;100520.41;5076572;28;19974;-82
2022/07/09 06:28:36;;;;;;;;;;;;;;;17.99;100.00;100521.56;5076185;28;20370;-78
2022/07/09 06:31:04;;;;;;;;;;;;;;;17.94;100.00;100530.59;5075589;28;19955;-77
2022/07/09 06:33:31;;;;;;;;;;;;;;;18.19;100.00;100527.16;5075833;28;19931;-77
2022/07/09 06:35:59;;;;;;;;;;;;;;;18.49;100.00;100529.72;5058432;28;20023;-79
2022/07/09 06:38:31;;;;;;;;;;;;;;;18.04;100.00;100531.56;5076047;28;19978;-84
2022/07/09 06:40:58;;;;;;;;;;;;;;;18.26;100.00;100534.69;5058419;28;19924;-82
2022/07/09 06:43:25;;;;;;;;;;;;;;;17.96;100.00;100541.47;5058155;28;19931;-82
2022/07/09 06:45:56;;;;;;;;;;;;;;;17.25;100.00;100538.50;5075265;28;19931;-86
2022/07/09 06:48:24;;;;;;;;;;;;;;;17.80;100.00;100555.53;5075112;28;19925;-85
2022/07/09 06:50:51;;;;;;;;;;;;;;;18.06;100.00;100560.22;5058042;28;19931;-84
2022/07/09 06:53:19;;;;;;;;;;;;;;;17.64;100.00;100555.50;5058042;28;19974;-81
2022/07/09 06:55:46;;;;;;;;;;;;;;;17.69;100.00;100555.00;5057919;28;20284;-81
2022/07/09 06:58:13;;;;;;;;;;;;;;;17.77;100.00;100553.59;5075868;28;19939;-80
2022/07/09 07:00:41;;;;;;;;;;;;;;;16.93;100.00;100539.13;5074866;28;19954;-83
2022/07/09 07:03:08;;;;;;;;;;;;;;;17.55;100.00;100558.09;5075416;28;20007;-84
2022/07/09 07:05:35;;;;;;;;;;;;;;;18.07;100.00;100547.66;5075646;28;19946;-84
2022/07/09 07:08:03;;;;;;;;;;;;;;;18.45;100.00;100539.53;5074650;28;19925;-85
2022/07/09 07:10:30;;;;;;;;;;;;;;;18.70;100.00;100540.50;5040785;28;19928;-84
2022/07/09 07:12:57;;;;;;;;;;;;;;;18.61;100.00;100546.00;5057218;28;20398;-84
2022/07/09 07:15:24;;;;;;;;;;;;;;;17.94;100.00;100552.41;5074338;28;19928;-85
2022/07/09 07:17:51;;;;;;;;;;;;;;;17.99;100.00;100554.72;5073853;28;19932;-85
2022/07/09 07:20:24;;;;;;;;;;;;;;;19.29;100.00;100551.47;5074900;28;19924;-78
2022/07/09 07:22:51;;;;;;;;;;;;;;;20.24;100.00;100535.25;5075383;28;19932;-83
2022/07/09 07:25:19;;;;;;;;;;;;;;;20.33;100.00;100540.22;5073980;28;19924;-85
2022/07/09 07:27:46;;;;;;;;;;;;;;;20.09;100.00;100536.13;5040626;28;19925;-83
2022/07/09 07:30:14;;;;;;;;;;;;;;;19.76;100.00;100541.19;5074734;28;19932;-83
2022/07/09 07:32:41;;;;;;;;;;;;;;;19.09;100.00;100548.75;5073618;28;19930;-84
2022/07/09 07:35:08;;;;;;;;;;;;;;;18.97;100.00;100546.66;5075138;28;19925;-83
2022/07/09 07:37:35;;;;;;;;;;;;;;;18.92;100.00;100555.69;5056809;28;19931;-83
2022/07/09 07:40:03;;;;;;;;;;;;;;;18.47;100.00;100566.16;5073520;28;19924;-84
2022/07/09 07:42:33;;;;;;;;;;;;;;;18.32;100.00;100550.72;5073361;28;20294;-83
2022/07/09 07:45:00;;;;;;;;;;;;;;;19.30;100.00;100547.38;5040533;28;19935;-81
2022/07/09 07:47:27;;;;;;;;;;;;;;;19.05;100.00;100548.03;5074972;28;19924;-80
2022/07/09 07:49:55;;;;;;;;;;;;;;;19.07;100.00;100556.09;5073370;28;19924;-80
2022/07/09 07:52:22;;;;;;;;;;;;;;;20.29;100.00;100556.59;5073260;28;19924;-79
2022/07/09 07:54:49;;;;;;;;;;;;;;;21.18;100.00;100550.31;5073140;28;19924;-78
2022/07/09 07:57:16;;;;;;;;;;;;;;;22.22;100.00;100544.72;5073257;28;19925;-81
2022/07/09 07:59:43;;;;;;;;;;;;;;;21.93;100.00;100549.94;5067196;28;19936;-79
2022/07/09 08:02:10;;;;;;;;;;;;;;;21.96;100.00;100549.03;5050845;28;20367;-81
2022/07/09 08:04:38;;;;;;;;;;;;;;;21.73;100.00;100545.84;5070755;28;20592;-78
2022/07/09 08:07:05;;;;;;;;;;;;;;;22.07;100.00;100555.09;5068655;28;19931;-80
2022/07/09 08:09:33;;;;;;;;;;;;;;;22.92;100.00;100541.81;5069652;28;19928;-80
2022/07/09 08:12:01;;;;;;;;;;;;;;;21.97;100.00;100541.28;5068759;28;19931;-80
2022/07/09 08:14:28;;;;;;;;;;;;;;;23.30;100.00;100532.03;5069341;28;19924;-81
2022/07/09 08:16:55;;;;;;;;;;;;;;;24.42;100.00;100527.53;5069324;28;19929;-80
2022/07/09 08:19:22;;;;;;;;;;;;;;;24.86;100.00;100524.91;5070658;28;19955;-81
2022/07/09 08:21:51;;;;;;;;;;;;;;;23.63;100.00;100533.00;5069035;28;20433;-80
2022/07/09 08:24:18;;;;;;;;;;;;;;;22.31;100.00;100547.63;5073962;28;19924;-83
2022/07/09 08:26:45;;;;;;;;;;;;;;;22.17;100.00;100553.09;5055865;28;20019;-84
2022/07/09 08:29:12;;;;;;;;;;;;;;;22.41;100.00;100549.25;5056800;28;20007;-86
2022/07/09 08:31:50;;;;;;;;;;;;;;;22.23;100.00;100552.03;5071966;28;20011;-84
2022/07/09 08:34:17;;;;;;;;;;;;;;;20.67;100.00;100560.22;5079808;28;20446;-83
2022/07/09 08:36:47;;;;;;;;;;;;;;;20.66;100.00;100559.41;5056242;28;19928;-83
2022/07/09 08:39:14;;;;;;;;;;;;;;;21.28;100.00;100560.53;5073891;28;19925;-81
2022/07/09 08:41:42;;;;;;;;;;;;;;;22.02;100.00;100552.88;5074044;28;19970;-86
2022/07/09 08:44:12;;;;;;;;;;;;;;;23.14;100.00;100551.03;5055025;28;19924;-82
2022/07/09 08:46:40;;;;;;;;;;;;;;;23.59;100.00;100544.56;5050670;28;19992;-82
2022/07/09 08:49:08;;;;;;;;;;;;;;;24.36;100.00;100537.22;5053014;28;19932;-82
2022/07/09 08:51:38;;;;;;;;;;;;;;;23.55;100.00;100534.59;5052592;28;19991;-80
2022/07/09 08:54:07;;;;;;;;;;;;;;;22.01;100.00;100548.44;5072093;28;20380;-85
2022/07/09 08:56:34;;;;;;;;;;;;;;;21.99;100.00;100548.09;5072105;28;19928;-87
2022/07/09 08:59:01;;;;;;;;;;;;;;;21.42;100.00;100551.47;5055705;28;19929;-84
2022/07/09 09:01:29;;;;;;;;;;;;;;;21.73;100.00;100546.66;5039029;28;20287;-83
2022/07/09 09:03:56;;;;;;;;;;;;;;;21.19;100.00;100544.19;5055003;28;19962;-85
2022/07/09 09:06:23;;;;;;;;;;;;;;;21.58;100.00;100542.75;5073440;28;20406;-87
2022/07/09 09:08:53;;;;;;;;;;;;;;;21.79;100.00;100553.38;5073111;28;19928;-85
2022/07/09 09:11:22;;;;;;;;;;;;;;;22.17;100.00;100544.56;5073076;28;19943;-81
2022/07/09 09:13:49;;;;;;;;;;;;;;;22.46;100.00;100531.53;5038701;28;19931;-81
2022/07/09 09:16:17;;;;;;;;;;;;;;;22.03;100.00;100543.06;5072487;28;19925;-81
2022/07/09 09:18:52;;;;;;;;;;;;;;;21.89;100.00;100549.31;5055855;28;20031;-82
2022/07/09 09:21:21;;;;;;;;;;;;;;;22.15;100.00;100545.03;5073527;28;19964;-81
2022/07/09 09:23:48;;;;;;;;;;;;;;;22.21;100.00;100536.66;5072031;28;19953;-81
2022/07/09 09:26:17;;;;;;;;;;;;;;;22.22;100.00;100550.44;5073470;28;20348;-77
2022/07/09 09:28:51;;;;;;;;;;;;;;;22.46;100.00;100539.31;5071555;28;19983;-77
2022/07/09 09:31:25;;;;;;;;;;;;;;;22.54;100.00;100535.72;5038405;28;20015;-79
2022/07/09 09:33:55;;;;;;;;;;;;;;;22.14;100.00;100542.66;5038712;28;20407;-78
2022/07/09 09:36:33;;;;;;;;;;;;;;;21.90;100.00;100539.50;5073201;28;20341;-81
2022/07/09 09:39:27;;;;;;;;;;;;;;;22.23;100.00;100545.53;5055721;28;19931;-81
2022/07/09 09:41:55;;;;;;;;;;;;;;;22.62;100.00;100534.16;5067611;28;19956;-81
2022/07/09 09:44:24;;;;;;;;;;;;;;;22.56;100.00;100538.09;5069030;28;19932;-80
2022/07/09 09:46:52;;;;;;;;;;;;;;;22.47;100.00;100533.13;5056766;28;19929;-80
2022/07/09 09:49:20;;;;;;;;;;;;;;;22.07;100.00;100529.47;5088565;28;19947;-79
2022/07/09 09:52:07;;;;;;;;;;;;;;;22.33;100.00;100528.03;5056501;28;19924;-79
2022/07/09 09:54:36;;;;;;;;;;;;;;;22.19;100.00;100539.19;5054847;28;19929;-79
2022/07/09 09:57:06;;;;;;;;;;;;;;;22.34;100.00;100532.44;5055677;28;19924;-79
2022/07/09 09:59:34;;;;;;;;;;;;;;;21.93;100.00;100527.19;5056487;28;19925;-79
2022/07/09 10:02:01;;;;;;;;;;;;;;;22.20;100.00;100535.88;5056282;28;19939;-78
2022/07/09 10:04:29;;;;;;;;;;;;;;;22.54;100.00;100527.16;5056300;28;19925;-79
2022/07/09 10:06:56;;;;;;;;;;;;;;;22.47;100.00;100540.88;5054414;28;19929;-80
2022/07/09 10:09:23;;;;;;;;;;;;;;;22.34;100.00;100535.28;5093265;28;20096;-76
2022/07/09 10:11:50;;;;;;;;;;;;;;;22.09;100.00;100531.88;5094638;28;19971;-76
2022/07/09 10:14:28;;;;;;;;;;;;;;;22.11;100.00;100541.53;5095045;28;19931;-76
2022/07/09 10:16:55;;;;;;;;;;;;;;;21.50;100.00;100523.56;5093007;28;19935;-76
2022/07/09 10:19:29;;;;;;;;;;;;;;;21.42;100.00;100531.56;5075755;28;20008;-79
2022/07/09 10:21:57;;;;;;;;;;;;;;;21.54;100.00;100529.94;5092692;28;20298;-79
2022/07/09 10:24:24;;;;;;;;;;;;;;;21.43;100.00;100516.13;5094325;28;19989;-79
2022/07/09 10:26:51;;;;;;;;;;;;;;;21.62;100.00;100523.50;5094175;28;20361;-79
2022/07/09 10:29:19;;;;;;;;;;;;;;;21.71;100.00;100509.34;5094158;28;20009;-79
2022/07/09 10:31:47;;;;;;;;;;;;;;;21.32;100.00;100522.19;5076856;28;19925;-79
2022/07/09 10:34:29;;;;;;;;;;;;;;;21.56;100.00;100536.72;5094264;28;19928;-79
2022/07/09 10:37:00;;;;;;;;;;;;;;;21.72;100.00;100533.66;5076769;28;19928;-79
2022/07/09 10:39:29;;;;;;;;;;;;;;;21.54;100.00;100522.19;5077108;28;20062;-79
2022/07/09 10:42:05;;;;;;;;;;;;;;;21.52;100.00;100524.72;5095087;28;19956;-79
2022/07/09 10:44:36;;;;;;;;;;;;;;;22.26;100.00;100531.16;5093925;28;19936;-79
2022/07/09 10:47:04;;;;;;;;;;;;;;;22.06;100.00;100530.75;5076950;28;19932;-79
2022/07/09 10:49:35;;;;;;;;;;;;;;;22.16;100.00;100518.13;5094700;28;19924;-79
2022/07/09 10:52:03;;;;;;;;;;;;;;;21.55;100.00;100512.41;5110224;28;19928;-76
2022/07/09 10:54:33;;;;;;;;;;;;;;;21.87;100.00;100514.81;5126884;27;20349;-76
2022/07/09 10:57:00;;;;;;;;;;;;;;;22.11;100.00;100513.06;5093156;28;20438;-76
2022/07/09 10:59:27;;;;;;;;;;;;;;;22.38;100.00;100501.78;5094400;28;20147;-76
2022/07/09 11:01:55;;;;;;;;;;;;;;;22.75;100.00;100514.88;5076705;28;20121;-76
2022/07/09 11:04:25;;;;;;;;;;;;;;;22.80;100.00;100522.81;5094632;28;20325;-76
2022/07/09 11:06:57;;;;;;;;;;;;;;;22.31;100.00;100527.69;5093386;28;19924;-76
2022/07/09 11:09:28;;;;;;;;;;;;;;;22.37;100.00;100545.75;5093270;28;20378;-76
2022/07/09 11:11:56;;;;;;;;;;;;;;;22.11;100.00;100549.28;5059489;28;19978;-76
2022/07/09 11:14:23;;;;;;;;;;;;;;;22.62;100.00;100542.72;5093203;28;19977;-76
2022/07/09 11:16:54;;;;;;;;;;;;;;;22.73;100.00;100534.50;5093322;28;20276;-76
2022/07/09 11:19:22;;;;;;;;;;;;;;;22.92;100.00;100541.81;5092955;28;19928;-76
2022/07/09 11:21:50;;;;;;;;;;;;;;;23.19;100.00;100538.19;5076055;28;19958;-76
2022/07/09 11:24:19;;;;;;;;;;;;;;;22.94;100.00;100532.81;5094145;28;19931;-76
2022/07/09 11:26:46;;;;;;;;;;;;;;;22.89;100.00;100531.38;5093011;28;19930;-76
2022/07/09 11:29:14;;;;;;;;;;;;;;;22.88;100.00;100529.00;5076277;28;19928;-76
2022/07/09 11:31:48;;;;;;;;;;;;;;;23.00;100.00;100531.72;5059233;28;19960;-76
2022/07/09 11:34:16;;;;;;;;;;;;;;;23.14;100.00;100525.38;5092796;28;19930;-76
2022/07/09 11:36:45;;;;;;;;;;;;;;;23.06;100.00;100537.56;5094072;28;20400;-76
2022/07/09 11:39:23;;;;;;;;;;;;;;;23.07;100.00;100547.69;5076035;28;19924;-76
2022/07/09 11:41:49;;;;;;;;;;;;;;;22.94;100.00;100533.59;5092867;28;19931;-76
2022/07/09 11:44:21;;;;;;;;;;;;;;;22.99;100.00;100532.94;5092896;28;20323;-76
2022/07/09 11:47:02;;;;;;;;;;;;;;;22.73;100.00;100545.88;5092344;28;19930;-76
2022/07/09 11:49:40;;;;;;;;;;;;;;;22.97;100.00;100538.34;5075317;28;19963;-76
2022/07/09 11:52:17;;;;;;;;;;;;;;;23.05;100.00;100539.63;5092425;28;19930;-76
2022/07/09 11:55:00;;;;;;;;;;;;;;;23.19;100.00;100531.72;5070080;28;19925;-76
2022/07/09 11:57:28;;;;;;;;;;;;;;;23.02;100.00;100529.16;5072087;28;19924;-76
2022/07/09 11:59:55;;;;;;;;;;;;;;;22.52;100.00;100518.28;5073292;28;19929;-77
2022/07/09 12:02:28;;;;;;;;;;;;;;;22.57;100.00;100531.94;5071771;28;19928;-76
2022/07/09 12:04:56;;;;;;;;;;;;;;;22.99;100.00;100517.94;5088204;28;20023;-76
2022/07/09 12:07:23;;;;;;;;;;;;;;;23.24;100.00;100522.50;5088532;28;20298;-76
2022/07/09 12:09:57;;;;;;;;;;;;;;;23.04;100.00;100518.09;5071891;28;19924;-76
2022/07/09 12:12:24;;;;;;;;;;;;;;;23.41;100.00;100509.56;5071583;28;20360;-77
2022/07/09 12:14:51;;;;;;;;;;;;;;;23.34;100.00;100522.06;5105287;28;20016;-76
2022/07/09 12:17:19;;;;;;;;;;;;;;;22.95;100.00;100512.38;5088441;28;19935;-76
2022/07/09 12:19:46;;;;;;;;;;;;;;;23.29;100.00;100519.06;5055656;28;19967;-76
2022/07/09 12:22:13;;;;;;;;;;;;;;;23.32;100.00;100512.41;5055190;28;19931;-76
2022/07/09 12:24:40;;;;;;;;;;;;;;;22.94;100.00;100522.19;5071708;28;20306;-76
2022/07/09 12:27:07;;;;;;;;;;;;;;;22.57;100.00;100519.72;5071912;28;19924;-76
2022/07/09 12:29:50;;;;;;;;;;;;;;;22.45;100.00;100515.72;5072186;28;19924;-76
2022/07/09 12:32:16;;;;;;;;;;;;;;;22.49;100.00;100513.50;5054729;28;20077;-76
2022/07/09 12:34:44;;;;;;;;;;;;;;;22.82;100.00;100508.88;5088734;28;20283;-76